Time;durP1;ratioP1;P1;durP2;ratioP2;P2;SDS_P1;SDS_P2;PMS_P1;PMS_P2;Temp;Humidity;BMP_temperature;BMP_pressure;BME280_temperature;BME280_humidity;BME280_pressure;Samples;Min_cycle;Max_cycle;Signal;HPM_P1;HPM_P2
2022/03/27 00:02:13;;;;;;;4.53;3.80;;;;;;;16.01;41.77;98133.81;4865450;29;20230;-88
2022/03/27 00:04:41;;;;;;;4.53;3.47;;;;;;;15.92;41.85;98130.72;4864810;29;20245;-87
2022/03/27 00:07:08;;;;;;;4.27;3.77;;;;;;;17.49;41.82;98484.78;4872734;29;20218;-87
2022/03/27 00:09:37;;;;;;;3.93;3.53;;;;;;;17.50;41.67;98406.91;4883069;29;20220;-87
2022/03/27 00:12:04;;;;;;;5.20;3.23;;;;;;;12.47;41.81;97577.88;4896533;29;20218;-87
2022/03/27 00:14:31;;;;;;;4.30;3.37;;;;;;;14.33;41.46;97898.81;4885616;29;20246;-89
2022/03/27 00:16:58;;;;;;;3.97;3.67;;;;;;;15.01;41.67;98017.81;4888261;29;20198;-87
2022/03/27 00:19:25;;;;;;;3.87;3.50;;;;;;;12.05;41.59;97506.22;4878735;29;20198;-87
2022/03/27 00:21:57;;;;;;;4.67;4.00;;;;;;;11.34;42.15;97357.13;4926878;29;20208;-92
2022/03/27 00:24:24;;;;;;;4.27;3.47;;;;;;;11.76;41.96;97408.63;4935033;29;20265;-93
2022/03/27 00:26:50;;;;;;;4.07;3.57;;;;;;;13.30;41.74;97734.69;4920062;29;20229;-90
2022/03/27 00:29:18;;;;;;;3.93;3.53;;;;;;;14.67;42.12;97960.81;4906849;29;20508;-92
2022/03/27 00:31:48;;;;;;;4.00;3.60;;;;;;;14.72;41.95;97982.25;4890137;29;20211;-93
2022/03/27 00:34:15;;;;;;;6.00;3.60;;;;;;;14.59;41.70;97932.53;4883473;29;20191;-93
2022/03/27 00:36:42;;;;;;;3.57;3.27;;;;;;;12.89;42.16;97642.81;4897295;29;20214;-92
2022/03/27 00:39:08;;;;;;;3.77;3.37;;;;;;;12.58;42.15;97636.53;4929487;23;20395;-93
2022/03/27 00:41:35;;;;;;;4.73;3.70;;;;;;;14.59;42.22;97962.88;4979246;23;20232;-93
2022/03/27 00:44:03;;;;;;;4.10;3.30;;;;;;;13.79;42.60;97800.13;4887048;29;20566;-87
2022/03/27 00:46:30;;;;;;;4.30;3.63;;;;;;;12.99;42.07;97675.41;4900430;29;20217;-85
2022/03/27 00:48:57;;;;;;;3.70;3.40;;;;;;;16.22;41.97;98250.09;4895973;29;20206;-87
2022/03/27 00:51:24;;;;;;;3.97;3.37;;;;;;;15.49;42.02;98075.72;4873579;29;20703;-87
2022/03/27 00:53:50;;;;;;;3.47;3.17;;;;;;;14.56;41.71;97970.28;4883878;29;20206;-86
2022/03/27 00:56:17;;;;;;;3.87;3.53;;;;;;;17.58;42.50;98461.59;4880856;29;20216;-86
2022/03/27 00:58:44;;;;;;;3.77;3.47;;;;;;;14.13;42.04;97935.44;4897731;29;20213;-88
2022/03/27 01:01:13;;;;;;;3.60;3.30;;;;;;;17.10;42.15;98355.38;4904718;29;20316;-85
2022/03/27 01:03:40;;;;;;;3.47;3.17;;;;;;;10.81;42.28;97288.22;4919089;29;20200;-87
2022/03/27 01:06:25;;;;;;;3.23;2.90;;;;;;;15.00;41.81;98018.59;4897418;29;20208;-86
2022/03/27 01:11:40;;;;;;;3.37;3.07;;;;;;;16.70;42.14;98303.00;4911893;29;20224;-87
2022/03/27 01:14:06;;;;;;;3.33;3.03;;;;;;;16.93;41.73;98345.84;4915028;29;20205;-87
2022/03/27 01:16:57;;;;;;;3.40;3.10;;;;;;;18.53;41.87;98600.44;4895384;29;20691;-87
2022/03/27 01:19:25;;;;;;;3.60;3.27;;;;;;;15.03;42.35;98011.19;4914252;29;20272;-87
2022/03/27 01:21:52;;;;;;;3.43;3.13;;;;;;;15.56;42.26;98124.31;4873941;29;20236;-87
2022/03/27 01:24:19;;;;;;;4.03;2.97;;;;;;;13.42;42.04;97697.59;4880810;29;20212;-87
2022/03/27 01:26:46;;;;;;;3.90;3.20;;;;;;;16.32;41.83;98266.78;4896391;29;20220;-85
2022/03/27 01:29:13;;;;;;;3.50;3.20;;;;;;;17.15;42.24;98342.94;4880559;29;20217;-87
2022/03/27 01:31:40;;;;;;;3.30;3.00;;;;;;;16.02;42.24;98169.41;4889826;29;20520;-86
2022/03/27 01:34:06;;;;;;;3.33;3.03;;;;;;;17.78;42.15;98472.16;4883498;29;20215;-86
2022/03/27 01:36:34;;;;;;;3.17;2.97;;;;;;;18.17;42.32;98562.63;4887069;29;20213;-85
2022/03/27 01:39:13;;;;;;;3.27;2.97;;;;;;;16.57;41.81;98294.53;4894668;29;20252;-87
2022/03/27 01:41:41;;;;;;;3.43;3.13;;;;;;;18.27;42.21;98553.88;4887087;29;20572;-86
2022/03/27 01:44:15;;;;;;;3.30;3.00;;;;;;;17.82;42.09;98468.13;4894223;29;20635;-86
2022/03/27 01:46:42;;;;;;;3.60;3.20;;;;;;;17.98;42.28;98506.38;4892899;29;20649;-86
2022/03/27 01:49:11;;;;;;;3.40;3.10;;;;;;;15.53;42.63;98130.81;4883265;29;20205;-86
2022/03/27 01:51:43;;;;;;;3.30;3.00;;;;;;;17.06;42.37;98362.72;4875526;29;20223;-86
2022/03/27 01:54:10;;;;;;;3.20;3.00;;;;;;;17.20;42.43;98392.34;4885230;29;20208;-85
2022/03/27 01:56:38;;;;;;;3.57;3.27;;;;;;;16.37;42.36;98235.81;4881907;29;20214;-86
2022/03/27 01:59:06;;;;;;;4.73;3.40;;;;;;;16.28;42.70;98219.16;4887451;29;20721;-87
2022/03/27 02:01:32;;;;;;;3.27;2.97;;;;;;;15.58;42.34;98127.81;4898241;29;20235;-86
2022/03/27 02:04:00;;;;;;;3.93;3.07;;;;;;;14.56;42.43;98008.22;4912811;29;20200;-86
2022/03/27 02:06:27;;;;;;;3.43;3.13;;;;;;;15.55;42.31;98147.91;4927586;29;20261;-87
2022/03/27 02:08:53;;;;;;;3.30;3.00;;;;;;;13.02;42.24;97675.63;4892367;29;20264;-87
2022/03/27 02:11:29;;;;;;;3.50;3.20;;;;;;;17.37;42.27;98399.28;4907942;29;20225;-87
2022/03/27 02:13:56;;;;;;;3.30;3.00;;;;;;;14.42;42.25;97885.06;4904132;29;20256;-88
2022/03/27 02:16:22;;;;;;;3.63;3.30;;;;;;;15.60;42.34;98094.97;4923435;29;20207;-86
2022/03/27 02:18:50;;;;;;;3.40;3.10;;;;;;;14.37;42.59;97913.38;4899626;29;20197;-87
2022/03/27 02:21:17;;;;;;;3.43;3.13;;;;;;;14.22;42.47;97923.38;4906895;29;20224;-95
2022/03/27 02:23:44;;;;;;;3.17;2.87;;;;;;;11.18;42.51;97332.59;4934110;29;20191;-94
2022/03/27 02:26:10;;;;;;;3.20;2.90;;;;;;;13.42;42.27;97737.09;4911806;29;20200;-94
2022/03/27 02:28:39;;;;;;;2.80;2.60;;;;;;;12.83;42.44;97678.59;4909787;29;20218;-94
2022/03/27 02:31:06;;;;;;;3.63;3.20;;;;;;;15.95;43.05;98161.34;4906806;29;20299;-93
2022/03/27 02:33:37;;;;;;;3.10;2.80;;;;;;;13.99;42.82;97900.81;4917061;29;20245;-95
2022/03/27 02:36:08;;;;;;;3.37;2.93;;;;;;;14.19;42.30;97925.72;4925496;29;20196;-94
2022/03/27 02:38:35;;;;;;;3.67;3.13;;;;;;;13.16;42.38;97717.78;4942242;29;20228;-95
2022/03/27 02:41:04;;;;;;;4.47;2.80;;;;;;;16.26;42.67;98292.63;4910531;29;20241;-92
2022/03/27 02:43:31;;;;;;;2.97;2.77;;;;;;;12.95;42.69;97698.69;4911417;29;20232;-93
2022/03/27 02:45:58;;;;;;;2.90;2.70;;;;;;;15.56;42.49;98161.41;4912028;29;20249;-95
2022/03/27 02:48:25;;;;;;;4.03;3.43;;;;;;;15.54;43.19;98123.31;4923663;29;20217;-94
2022/03/27 02:50:55;;;;;;;3.73;2.80;;;;;;;13.14;42.84;97711.75;4924103;29;20209;-95
2022/03/27 02:53:21;;;;;;;3.37;3.07;;;;;;;13.47;42.73;97749.22;5013465;23;20225;-94
2022/03/27 02:55:48;;;;;;;3.07;2.83;;;;;;;15.10;42.67;98066.47;4923158;29;20197;-93
2022/03/27 02:58:15;;;;;;;3.27;2.97;;;;;;;14.69;42.79;98002.28;4880579;29;20198;-86
2022/03/27 03:00:42;;;;;;;3.03;2.80;;;;;;;16.36;42.74;98259.44;4883666;29;20205;-86
2022/03/27 03:03:10;;;;;;;3.17;2.90;;;;;;;16.38;42.57;98240.09;4897591;29;20237;-88
2022/03/27 03:05:38;;;;;;;4.23;3.10;;;;;;;16.26;42.41;98216.53;4867538;29;20300;-87
2022/03/27 03:08:11;;;;;;;2.83;2.63;;;;;;;15.43;42.51;98037.34;4868096;29;20710;-87
2022/03/27 03:10:39;;;;;;;3.33;3.03;;;;;;;16.29;42.51;98198.97;4868326;29;20211;-88
2022/03/27 03:13:09;;;;;;;3.17;2.90;;;;;;;16.81;43.08;98389.94;4898336;29;20577;-86
2022/03/27 03:15:36;;;;;;;2.97;2.73;;;;;;;15.89;42.55;98144.09;4890816;29;20236;-86
2022/03/27 03:18:04;;;;;;;3.50;2.90;;;;;;;15.70;42.27;98075.38;4890178;29;20216;-86
2022/03/27 03:20:32;;;;;;;3.20;2.90;;;;;;;16.06;42.39;98195.84;4903929;29;20570;-83
2022/03/27 03:22:59;;;;;;;3.30;3.00;;;;;;;17.49;42.47;98406.03;4896539;29;20617;-86
2022/03/27 03:25:25;;;;;;;2.83;2.63;;;;;;;16.60;42.83;98277.84;4898055;29;20226;-87
2022/03/27 03:27:52;;;;;;;2.83;2.63;;;;;;;16.01;42.26;98144.84;4882212;29;20220;-86
2022/03/27 03:30:19;;;;;;;3.77;3.37;;;;;;;17.55;42.37;98456.31;4898124;29;20324;-86
2022/03/27 03:32:45;;;;;;;3.47;3.17;;;;;;;15.40;42.25;98053.25;4883545;29;20232;-86
2022/03/27 03:35:12;;;;;;;3.10;2.90;;;;;;;16.51;42.50;98267.13;4894524;29;20202;-86
2022/03/27 03:38:01;;;;;;;3.43;3.13;;;;;;;14.53;42.44;97944.78;4860822;29;20269;-86
2022/03/27 03:40:28;;;;;;;3.33;2.83;;;;;;;13.98;42.42;97810.59;4850326;29;20214;-85
2022/03/27 03:42:55;;;;;;;3.17;2.90;;;;;;;15.22;42.35;98033.47;4892781;29;20264;-86
2022/03/27 03:45:22;;;;;;;3.27;2.97;;;;;;;17.67;42.34;98464.66;4848477;29;20617;-86
2022/03/27 03:47:52;;;;;;;3.30;3.00;;;;;;;14.65;42.61;97960.72;4860678;29;20201;-86
2022/03/27 03:50:18;;;;;;;3.23;2.97;;;;;;;14.27;42.53;97911.06;4897354;29;20610;-86
2022/03/27 03:52:45;;;;;;;3.00;2.77;;;;;;;16.42;42.51;98220.88;4863343;29;20233;-87
2022/03/27 03:55:13;;;;;;;3.10;2.90;;;;;;;17.03;42.45;98332.94;4895278;29;20731;-88
2022/03/27 03:57:40;;;;;;;3.10;2.80;;;;;;;17.29;42.36;98378.50;4866953;29;20269;-87
2022/03/27 04:00:07;;;;;;;3.50;3.20;;;;;;;17.28;42.69;98402.19;4866721;29;20272;-87
2022/03/27 04:02:34;;;;;;;3.67;3.20;;;;;;;14.79;42.18;97993.59;4880890;29;20730;-86
2022/03/27 04:05:01;;;;;;;3.10;2.77;;;;;;;15.55;42.58;98084.56;4896897;29;20206;-88
2022/03/27 04:07:28;;;;;;;3.30;3.00;;;;;;;17.60;42.64;98435.50;4913049;29;20277;-86
2022/03/27 04:09:54;;;;;;;4.73;3.10;;;;;;;18.06;42.74;98511.13;4877706;29;20329;-87
2022/03/27 04:12:26;;;;;;;3.17;2.80;;;;;;;18.20;42.88;98566.25;4878979;29;20228;-86
2022/03/27 04:14:52;;;;;;;2.90;2.70;;;;;;;17.26;42.46;98375.78;4880769;29;20210;-87
2022/03/27 04:17:19;;;;;;;3.30;3.00;;;;;;;17.69;42.77;98458.91;4881589;29;20233;-86
2022/03/27 04:19:46;;;;;;;3.27;2.97;;;;;;;16.88;42.74;98329.50;4880628;29;20739;-87
2022/03/27 04:22:12;;;;;;;3.20;2.90;;;;;;;18.37;42.87;98569.78;4896535;29;20383;-87
2022/03/27 04:24:39;;;;;;;2.83;2.63;;;;;;;17.82;42.77;98470.66;4896833;29;20664;-86
2022/03/27 04:27:06;;;;;;;3.30;3.00;;;;;;;17.85;42.44;98486.97;4896398;29;20284;-86
2022/03/27 04:29:32;;;;;;;3.27;2.97;;;;;;;17.61;42.39;98436.34;4878130;29;20248;-86
2022/03/27 04:31:59;;;;;;;3.03;2.83;;;;;;;17.94;42.54;98505.31;4874694;29;20230;-87
2022/03/27 04:34:25;;;;;;;3.93;3.10;;;;;;;17.97;42.95;98504.66;4894006;29;20739;-86
2022/03/27 04:36:53;;;;;;;3.30;3.00;;;;;;;17.96;42.81;98506.28;4865774;29;20332;-86
2022/03/27 04:39:20;;;;;;;3.10;2.80;;;;;;;17.75;42.67;98466.00;4880734;29;20233;-86
2022/03/27 04:41:47;;;;;;;2.97;2.77;;;;;;;17.94;43.02;98510.41;4895912;29;20233;-84
2022/03/27 04:44:13;;;;;;;3.00;2.80;;;;;;;17.57;42.70;98444.59;4861988;29;20244;-83
2022/03/27 04:46:40;;;;;;;2.83;2.63;;;;;;;17.93;42.65;98513.75;4864664;29;20293;-86
2022/03/27 04:49:07;;;;;;;2.80;2.60;;;;;;;17.95;42.65;98513.84;4859218;29;20242;-87
2022/03/27 04:51:33;;;;;;;2.93;2.70;;;;;;;17.94;43.04;98519.69;4861611;29;20248;-84
2022/03/27 04:54:00;;;;;;;3.37;3.07;;;;;;;17.80;43.01;98484.97;4862193;29;20230;-87
2022/03/27 04:56:27;;;;;;;3.20;2.90;;;;;;;17.47;43.10;98444.84;4869873;29;20201;-85
2022/03/27 04:58:54;;;;;;;3.70;3.40;;;;;;;17.24;42.76;98386.66;4861642;29;20210;-87
2022/03/27 05:01:20;;;;;;;2.97;2.73;;;;;;;17.71;43.09;98477.66;4864338;29;20670;-87
2022/03/27 05:03:47;;;;;;;3.30;3.00;;;;;;;18.20;42.98;98561.16;4895296;29;20248;-87
2022/03/27 05:06:15;;;;;;;3.10;2.90;;;;;;;16.95;42.98;98356.09;4886599;29;20294;-84
2022/03/27 05:08:44;;;;;;;2.93;2.70;;;;;;;16.86;42.89;98331.03;4862878;29;20245;-85
2022/03/27 05:11:11;;;;;;;2.60;2.40;;;;;;;16.78;43.02;98313.63;4847225;29;20699;-87
2022/03/27 05:13:37;;;;;;;2.80;2.60;;;;;;;18.02;42.78;98538.84;4851780;29;20209;-86
2022/03/27 05:16:04;;;;;;;3.10;2.83;;;;;;;16.29;42.98;98277.59;4880342;29;20670;-86
2022/03/27 05:18:31;;;;;;;2.80;2.60;;;;;;;16.93;42.79;98404.25;4880140;29;20233;-87
2022/03/27 05:20:57;;;;;;;3.13;2.83;;;;;;;16.18;43.01;98240.56;4895706;29;20301;-88
2022/03/27 05:23:24;;;;;;;3.00;2.80;;;;;;;16.91;42.92;98366.88;4864687;29;20271;-87
2022/03/27 05:25:52;;;;;;;3.10;2.80;;;;;;;16.80;43.12;98335.75;4879240;29;20253;-87
2022/03/27 05:28:19;;;;;;;3.20;2.90;;;;;;;17.16;42.55;98420.88;4900345;29;20208;-86
2022/03/27 05:30:46;;;;;;;3.50;3.20;;;;;;;17.82;43.10;98514.78;4879384;29;20241;-87
2022/03/27 05:33:13;;;;;;;3.13;2.90;;;;;;;17.13;42.86;98428.31;4880311;29;20213;-86
2022/03/27 05:35:41;;;;;;;3.10;2.80;;;;;;;17.11;42.79;98402.81;4879823;29;20264;-87
2022/03/27 05:38:08;;;;;;;3.30;3.00;;;;;;;17.71;43.21;98509.84;4861822;29;20240;-87
2022/03/27 05:40:34;;;;;;;3.30;3.00;;;;;;;17.71;42.86;98508.16;4879363;29;20233;-88
2022/03/27 05:43:01;;;;;;;3.07;2.83;;;;;;;16.96;42.89;98379.03;4879331;29;20290;-88
2022/03/27 05:45:28;;;;;;;3.03;2.83;;;;;;;16.51;43.21;98337.28;4876507;29;20611;-87
2022/03/27 05:47:54;;;;;;;2.97;2.70;;;;;;;17.61;42.87;98499.88;4861614;29;20741;-87
2022/03/27 05:50:22;;;;;;;3.13;2.83;;;;;;;17.47;42.88;98510.91;4910218;29;20629;-87
2022/03/27 05:52:52;;;;;;;2.87;2.67;;;;;;;17.86;43.02;98556.53;4864545;29;20329;-87
2022/03/27 05:55:20;;;;;;;3.77;3.23;;;;;;;17.63;42.90;98533.91;4878933;29;20209;-87
2022/03/27 05:57:46;;;;;;;3.47;3.17;;;;;;;17.90;42.84;98563.53;4895045;29;20201;-87
2022/03/27 06:00:20;;;;;;;3.30;3.00;;;;;;;17.82;42.93;98558.00;4878681;29;20782;-88
2022/03/27 06:02:50;;;;;;;3.03;2.83;;;;;;;17.61;43.06;98520.22;4880135;29;20264;-87
2022/03/27 06:05:22;;;;;;;3.10;2.80;;;;;;;17.57;43.03;98528.47;4876631;29;20206;-88
2022/03/27 06:07:58;;;;;;;3.37;3.07;;;;;;;16.94;43.33;98405.13;4871770;29;20213;-84
2022/03/27 06:10:31;;;;;;;3.13;2.93;;;;;;;17.67;43.02;98544.38;4866661;29;20288;-87
2022/03/27 06:12:59;;;;;;;3.10;2.90;;;;;;;17.90;42.94;98579.69;4867678;29;20624;-86
2022/03/27 06:15:27;;;;;;;2.97;2.77;;;;;;;17.79;42.80;98554.38;4865501;29;20238;-85
2022/03/27 06:17:54;;;;;;;3.00;2.80;;;;;;;18.01;43.23;98599.03;4876608;29;20210;-86
2022/03/27 06:20:25;;;;;;;3.07;2.83;;;;;;;17.69;43.14;98537.72;4892654;29;20309;-87
2022/03/27 06:22:52;;;;;;;3.10;2.80;;;;;;;17.85;43.01;98573.44;4880488;29;20232;-87
2022/03/27 06:25:20;;;;;;;3.30;3.00;;;;;;;17.65;42.98;98556.09;4879337;29;20314;-87
2022/03/27 06:27:48;;;;;;;3.53;3.03;;;;;;;17.61;43.35;98531.28;4861752;29;20711;-87
2022/03/27 06:30:17;;;;;;;3.00;2.77;;;;;;;17.63;43.06;98550.06;4879684;29;20244;-88
2022/03/27 06:32:44;;;;;;;3.00;2.70;;;;;;;16.85;43.25;98397.84;4879120;29;20244;-87
2022/03/27 06:35:11;;;;;;;3.00;2.70;;;;;;;16.79;42.92;98394.94;4860779;29;20244;-88
2022/03/27 06:37:38;;;;;;;3.00;2.80;;;;;;;17.74;43.26;98561.72;4850169;29;20297;-88
2022/03/27 06:40:06;;;;;;;3.00;2.80;;;;;;;16.70;42.85;98381.69;4874400;29;20292;-85
2022/03/27 06:42:32;;;;;;;2.80;2.60;;;;;;;17.52;43.41;98529.84;4882951;29;20252;-88
2022/03/27 06:44:59;;;;;;;2.97;2.77;;;;;;;16.62;43.15;98384.50;4867645;29;20206;-88
2022/03/27 06:47:26;;;;;;;3.40;3.10;;;;;;;17.04;43.23;98443.88;4882638;29;20731;-85
2022/03/27 06:49:54;;;;;;;3.27;2.97;;;;;;;16.82;42.99;98415.44;4879394;29;20226;-89
2022/03/27 06:52:21;;;;;;;2.70;2.50;;;;;;;17.10;43.35;98456.94;4864480;29;20345;-87
2022/03/27 06:54:48;;;;;;;2.80;2.60;;;;;;;16.78;42.94;98402.44;4877009;29;20240;-88
2022/03/27 06:57:14;;;;;;;3.33;3.03;;;;;;;17.85;43.43;98587.81;4883222;29;20758;-86
2022/03/27 07:05:12;;;;;;;3.00;2.80;;;;;;;17.46;42.96;98510.03;4887835;29;20652;-87
2022/03/27 07:07:39;;;;;;;3.23;2.93;;;;;;;18.02;43.33;98607.50;4882572;29;20238;-87
2022/03/27 07:10:06;;;;;;;3.67;3.07;;;;;;;16.66;42.92;98367.03;4878483;29;20301;-86
2022/03/27 07:12:33;;;;;;;3.30;3.07;;;;;;;17.69;43.30;98547.00;4874985;29;20663;-86
2022/03/27 07:14:59;;;;;;;3.20;2.90;;;;;;;17.96;42.92;98599.50;4904098;29;20214;-88
2022/03/27 07:17:46;;;;;;;3.20;2.90;;;;;;;16.91;43.30;98415.09;4889142;29;20236;-87
2022/03/27 07:20:17;;;;;;;3.40;3.10;;;;;;;17.62;43.21;98529.63;4893306;29;20285;-88
2022/03/27 07:22:43;;;;;;;2.93;2.73;;;;;;;17.38;43.20;98506.09;4883936;29;20256;-86
2022/03/27 07:25:10;;;;;;;3.10;2.90;;;;;;;18.04;43.01;98614.47;4901145;29;20683;-87
2022/03/27 07:27:37;;;;;;;3.20;2.90;;;;;;;17.73;43.24;98561.63;4882837;29;20284;-87
2022/03/27 07:30:06;;;;;;;2.73;2.53;;;;;;;17.69;43.29;98541.91;4878565;29;20710;-86
2022/03/27 07:32:32;;;;;;;2.90;2.70;;;;;;;17.60;42.90;98532.06;4864148;29;20234;-86
2022/03/27 07:34:59;;;;;;;3.40;3.10;;;;;;;17.66;43.30;98540.06;4864760;29;20289;-87
2022/03/27 07:37:26;;;;;;;3.20;2.90;;;;;;;17.70;42.79;98544.56;4870345;29;20225;-87
2022/03/27 07:39:53;;;;;;;3.10;2.80;;;;;;;17.56;43.04;98527.56;4885526;29;20284;-86
2022/03/27 07:42:20;;;;;;;3.20;2.90;;;;;;;17.70;43.27;98543.66;4885149;29;20754;-87
2022/03/27 07:44:47;;;;;;;3.43;3.13;;;;;;;17.76;42.86;98566.91;4880361;29;20305;-87
2022/03/27 07:47:14;;;;;;;3.30;3.00;;;;;;;17.64;43.31;98531.47;4869970;29;20290;-87
2022/03/27 07:49:40;;;;;;;3.40;3.07;;;;;;;17.61;43.50;98521.13;4876135;29;20308;-86
2022/03/27 07:52:07;;;;;;;3.30;3.00;;;;;;;17.51;43.35;98503.56;4866022;29;21043;-86
2022/03/27 07:54:34;;;;;;;3.00;2.77;;;;;;;17.41;43.34;98487.63;4874876;29;20763;-87
2022/03/27 07:57:01;;;;;;;2.97;2.67;;;;;;;18.00;42.93;98587.06;4867485;29;20210;-87
2022/03/27 07:59:27;;;;;;;3.17;2.87;;;;;;;17.92;43.15;98574.69;4882982;29;20202;-87
2022/03/27 08:01:54;;;;;;;3.23;2.93;;;;;;;18.10;43.33;98604.66;4864609;29;20228;-87
2022/03/27 08:04:21;;;;;;;2.90;2.70;;;;;;;17.86;43.07;98557.38;4903734;29;20221;-87
2022/03/27 08:06:47;;;;;;;2.87;2.67;;;;;;;17.85;42.97;98559.84;4876061;29;20293;-88
2022/03/27 08:09:14;;;;;;;3.20;2.87;;;;;;;17.66;43.17;98531.56;4884580;29;20264;-88
2022/03/27 08:11:41;;;;;;;3.10;2.90;;;;;;;18.00;43.40;98583.66;4873594;29;20270;-83
2022/03/27 08:14:11;;;;;;;2.80;2.60;;;;;;;17.70;43.12;98534.38;4900438;29;20241;-85
2022/03/27 08:16:38;;;;;;;3.30;3.00;;;;;;;17.90;42.95;98569.50;4884874;29;20237;-86
2022/03/27 08:19:04;;;;;;;3.40;3.10;;;;;;;18.29;43.11;98637.13;4869376;29;20202;-87
2022/03/27 08:21:31;;;;;;;3.33;3.03;;;;;;;17.91;43.32;98571.25;4884378;29;20257;-85
2022/03/27 08:23:57;;;;;;;3.20;2.90;;;;;;;17.77;43.17;98555.97;4881739;29;20304;-86
2022/03/27 08:29:09;;;;;;;4.47;4.03;;;;;;;17.90;43.11;98578.78;4883952;29;20700;-85
2022/03/27 08:31:36;;;;;;;4.80;4.30;;;;;;;17.49;42.82;98494.97;4855781;29;20305;-86
2022/03/27 08:34:02;;;;;;;6.93;5.23;;;;;;;18.31;43.05;98639.78;4881279;29;20745;-85
2022/03/27 08:36:29;;;;;;;5.97;5.37;;;;;;;17.47;42.56;98504.16;4881966;29;20218;-88
2022/03/27 08:38:56;;;;;;;6.83;5.30;;;;;;;17.89;42.47;98572.81;4881450;29;20257;-85
2022/03/27 08:41:22;;;;;;;8.97;5.87;;;;;;;17.82;42.51;98557.09;4881839;29;20648;-86
2022/03/27 08:43:49;;;;;;;7.87;5.70;;;;;;;17.85;42.71;98575.97;4881956;29;20297;-87
2022/03/27 08:46:16;;;;;;;7.40;5.87;;;;;;;16.61;42.46;98349.78;4881787;29;20665;-86
2022/03/27 08:48:44;;;;;;;10.30;5.73;;;;;;;17.18;42.50;98448.16;4879910;29;20214;-87
2022/03/27 08:51:34;;;;;;;9.30;5.70;;;;;;;16.47;42.98;98323.56;4884563;29;20225;-87
2022/03/27 08:54:06;;;;;;;8.07;6.33;;;;;;;17.84;43.08;98560.63;4874500;29;20240;-86
2022/03/27 08:56:33;;;;;;;9.00;6.57;;;;;;;16.89;42.86;98391.28;4880179;29;20210;-85
2022/03/27 08:59:04;;;;;;;13.83;5.77;;;;;;;18.10;43.49;98607.19;4903104;29;20731;-86
2022/03/27 09:01:31;;;;;;;7.80;6.10;;;;;;;18.32;43.33;98644.09;4884358;29;20229;-87
2022/03/27 09:03:58;;;;;;;12.30;6.03;;;;;;;17.64;43.23;98523.84;4862105;29;20221;-88
2022/03/27 09:06:26;;;;;;;10.23;5.73;;;;;;;18.31;43.17;98639.78;4884718;29;20233;-88
2022/03/27 09:08:55;;;;;;;8.23;6.10;;;;;;;18.06;43.39;98595.06;4883376;29;20257;-90
2022/03/27 09:11:25;;;;;;;7.63;5.80;;;;;;;17.79;43.12;98542.56;4885472;29;20775;-86
2022/03/27 09:13:52;;;;;;;8.27;5.43;;;;;;;17.58;43.49;98509.88;4880965;29;20206;-88
2022/03/27 09:16:19;;;;;;;8.20;5.40;;;;;;;16.60;43.27;98341.28;4869242;29;20249;-87
2022/03/27 09:18:49;;;;;;;7.10;5.80;;;;;;;17.09;43.48;98442.50;4877397;29;20210;-88
2022/03/27 09:21:17;;;;;;;13.27;6.10;;;;;;;17.94;43.52;98595.97;4874944;29;20230;-87
2022/03/27 09:23:44;;;;;;;10.80;5.90;;;;;;;17.10;43.38;98434.09;4869969;29;20233;-88
2022/03/27 09:26:13;;;;;;;7.50;6.30;;;;;;;17.81;43.57;98555.38;4879437;29;20290;-87
2022/03/27 09:28:46;;;;;;;7.57;6.00;;;;;;;18.07;43.95;98623.94;4909868;29;20240;-88
2022/03/27 09:31:17;;;;;;;8.10;5.57;;;;;;;18.27;43.67;98641.28;4866014;29;20822;-86
2022/03/27 09:34:01;;;;;;;8.20;6.00;;;;;;;17.86;43.84;98561.59;4883851;29;20320;-86
2022/03/27 09:39:13;;;;;;;7.60;5.97;;;;;;;18.28;43.61;98637.94;5500647;23;20216;-94
2022/03/27 10:23:27;;;;;;;8.43;6.63;;;;;;;16.18;43.66;98221.94;3998211;23;20323;-88
2022/03/27 10:25:56;;;;;;;7.10;6.17;;;;;;;17.52;43.65;98451.94;4899222;29;20201;-84
2022/03/27 10:28:22;;;;;;;7.53;5.80;;;;;;;17.25;43.53;98396.91;4914574;29;20299;-87
2022/03/27 10:30:50;;;;;;;7.80;6.47;;;;;;;17.78;43.47;98489.06;4906484;29;20308;-87
2022/03/27 10:33:17;;;;;;;7.87;6.07;;;;;;;17.93;43.70;98507.78;4888886;29;20922;-87
2022/03/27 10:35:56;;;;;;;8.37;6.33;;;;;;;18.39;43.23;98583.50;4883968;29;20205;-86
2022/03/27 10:39:00;;;;;;;6.83;5.50;;;;;;;18.41;43.34;98586.13;4900011;29;20289;-85
2022/03/27 10:41:29;;;;;;;7.17;5.60;;;;;;;18.41;43.39;98583.59;4896331;29;20271;-87
2022/03/27 10:44:17;;;;;;;8.87;6.33;;;;;;;18.41;43.13;98581.91;4892281;29;20337;-87
2022/03/27 10:46:46;;;;;;;7.50;5.43;;;;;;;16.97;43.44;98330.03;4894561;29;20287;-87
2022/03/27 10:49:15;;;;;;;7.50;5.87;;;;;;;18.02;43.14;98506.66;4894133;29;20205;-88
2022/03/27 10:51:46;;;;;;;8.17;6.47;;;;;;;18.06;43.39;98516.22;4882785;29;20224;-87
2022/03/27 10:54:20;;;;;;;8.70;5.67;;;;;;;17.41;43.61;98422.44;4898910;29;20202;-88
2022/03/27 10:56:49;;;;;;;6.53;5.80;;;;;;;18.15;43.14;98524.38;4881222;29;20241;-87
2022/03/27 10:59:17;;;;;;;5.77;5.10;;;;;;;17.72;42.97;98442.94;4891085;29;20292;-86
2022/03/27 11:01:55;;;;;;;7.17;5.60;;;;;;;18.05;42.94;98511.03;4901486;29;20239;-87
2022/03/27 11:04:36;;;;;;;7.17;5.60;;;;;;;16.90;43.09;98305.03;4885705;29;20231;-89
2022/03/27 11:07:15;;;;;;;7.00;5.67;;;;;;;18.39;43.04;98552.97;4881292;29;20194;-87
2022/03/27 11:09:44;;;;;;;5.97;5.17;;;;;;;17.89;43.49;98475.34;4917974;29;20730;-88
2022/03/27 11:12:28;;;;;;;7.50;5.67;;;;;;;18.39;43.24;98541.88;4869616;29;20252;-86
2022/03/27 11:14:59;;;;;;;9.93;5.50;;;;;;;18.00;43.31;98481.94;4913361;29;20205;-85
2022/03/27 11:17:41;;;;;;;8.70;5.87;;;;;;;18.39;43.36;98539.34;4894640;29;20233;-86
2022/03/27 11:20:10;;;;;;;8.80;5.80;;;;;;;17.81;43.53;98434.19;4899877;29;20205;-88
2022/03/27 11:22:56;;;;;;;9.93;6.43;;;;;;;17.80;43.94;98445.13;4886778;29;20237;-87
2022/03/27 11:25:37;;;;;;;8.77;5.73;;;;;;;18.38;43.91;98535.06;4921196;29;20658;-87
2022/03/27 11:28:23;;;;;;;9.87;6.07;;;;;;;17.85;44.18;98448.84;4920326;29;20212;-88
2022/03/27 11:30:50;;;;;;;7.47;6.00;;;;;;;18.37;44.21;98529.06;4906675;29;20240;-87
2022/03/27 11:33:23;;;;;;;9.80;6.47;;;;;;;18.38;43.74;98532.50;4937071;29;20248;-86
2022/03/27 11:36:07;;;;;;;10.53;6.73;;;;;;;18.37;43.90;98526.53;4905168;29;20260;-86
2022/03/27 11:38:35;;;;;;;8.23;6.30;;;;;;;17.85;43.89;98448.84;4920093;29;20204;-86
2022/03/27 11:41:25;;;;;;;7.83;6.43;;;;;;;18.38;43.92;98529.97;4888822;29;20252;-86
2022/03/27 11:43:52;;;;;;;8.67;6.20;;;;;;;17.82;43.64;98452.84;4920247;29;20308;-87
2022/03/27 11:46:26;;;;;;;6.60;5.90;;;;;;;17.87;43.68;98438.75;4889350;29;20899;-87
2022/03/27 11:48:53;;;;;;;7.70;6.13;;;;;;;16.91;43.55;98262.78;4886161;29;20845;-87
2022/03/27 11:51:20;;;;;;;7.40;6.30;;;;;;;17.91;43.43;98439.03;4900867;29;20312;-86
2022/03/27 11:53:46;;;;;;;7.97;6.47;;;;;;;17.44;43.48;98358.25;4884293;29;20293;-86
2022/03/27 11:56:13;;;;;;;8.07;6.47;;;;;;;18.12;43.51;98478.41;4885322;29;20253;-86
2022/03/27 11:58:40;;;;;;;9.57;6.40;;;;;;;17.73;43.24;98409.09;4901005;29;20293;-88
2022/03/27 12:01:08;;;;;;;8.53;6.67;;;;;;;16.75;43.73;98238.13;4885470;29;20257;-86
2022/03/27 12:03:36;;;;;;;9.97;6.93;;;;;;;18.31;43.55;98508.34;4885523;29;20217;-85
2022/03/27 12:06:08;;;;;;;8.53;6.17;;;;;;;17.70;43.99;98393.66;4901337;29;20240;-87
2022/03/27 12:08:39;;;;;;;7.57;6.70;;;;;;;17.91;43.84;98425.41;4899645;29;20297;-86
2022/03/27 12:11:07;;;;;;;7.53;6.00;;;;;;;17.76;43.50;98400.00;4901499;29;20755;-84
2022/03/27 12:13:35;;;;;;;8.70;6.27;;;;;;;17.68;43.95;98382.56;4889682;29;20710;-86
2022/03/27 12:16:03;;;;;;;7.30;5.97;;;;;;;17.53;44.12;98361.34;4889318;29;20198;-85
2022/03/27 12:18:33;;;;;;;7.83;6.37;;;;;;;18.02;44.01;98443.06;4899652;29;20216;-85
2022/03/27 12:21:10;;;;;;;9.23;6.50;;;;;;;17.85;44.11;98408.16;4904913;29;20715;-86
2022/03/27 12:23:47;;;;;;;8.40;6.17;;;;;;;17.62;43.95;98357.66;4889021;29;20634;-85
2022/03/27 12:29:40;;;;;;;9.73;6.87;;;;;;;17.61;43.60;98380.44;4908499;29;20205;-87
2022/03/27 12:32:35;;;;;;;8.50;6.30;;;;;;;16.62;43.95;98179.84;4914376;29;20269;-89
2022/03/27 12:35:22;;;;;;;8.97;6.30;;;;;;;14.46;43.97;97858.34;4992794;23;20227;-89
2022/03/27 12:56:26;;;;;;;8.60;6.73;;;;;;;14.21;43.57;97794.38;4952312;29;20216;-88
2022/03/27 12:59:19;;;;;;;10.27;6.53;;;;;;;12.62;43.60;97535.16;4906287;29;20207;-87
2022/03/27 13:01:50;;;;;;;8.20;6.20;;;;;;;13.87;43.78;97714.75;4903063;29;20600;-88